Time;durP1;ratioP1;P1;durP2;ratioP2;P2;SDS_P1;SDS_P2;PMS_P1;PMS_P2;Temp;Humidity;BMP_temperature;BMP_pressure;BME280_temperature;BME280_humidity;BME280_pressure;Samples;Min_cycle;Max_cycle;Signal;HPM_P1;HPM_P2
2022/04/29 00:00:11;;;;;;;13.35;5.68;;;18.80;63.00;;;;;;5017259;28;20548;-63
2022/04/29 00:02:38;;;;;;;12.80;6.15;;;18.70;62.90;;;;;;5021136;28;20026;-63
2022/04/29 00:05:04;;;;;;;13.93;5.65;;;18.70;63.00;;;;;;5013999;28;20470;-64
2022/04/29 00:07:30;;;;;;;11.73;5.57;;;18.70;62.90;;;;;;5018893;28;20101;-63
2022/04/29 00:09:56;;;;;;;11.80;5.30;;;18.70;62.90;;;;;;5018330;28;20041;-63
2022/04/29 00:12:21;;;;;;;13.38;5.38;;;18.70;63.00;;;;;;5015725;28;20025;-63
2022/04/29 00:14:47;;;;;;;9.35;5.20;;;18.70;63.00;;;;;;5016441;28;20482;-63
2022/04/29 00:17:13;;;;;;;12.10;5.38;;;18.70;63.00;;;;;;5015011;28;20045;-63
2022/04/29 00:19:39;;;;;;;11.57;5.72;;;18.70;63.00;;;;;;5022119;28;20040;-63
2022/04/29 00:22:05;;;;;;;11.77;5.53;;;18.70;63.00;;;;;;5011601;28;20030;-63
2022/04/29 00:24:31;;;;;;;11.27;5.35;;;18.70;63.00;;;;;;5021155;28;20464;-63
2022/04/29 00:26:58;;;;;;;11.20;5.30;;;18.70;63.00;;;;;;5015132;28;20045;-63
2022/04/29 00:29:23;;;;;;;11.00;4.90;;;18.60;63.00;;;;;;5013025;28;20034;-63
2022/04/29 00:31:50;;;;;;;10.38;4.63;;;18.60;63.00;;;;;;5017531;28;20026;-63
2022/04/29 00:34:16;;;;;;;13.63;5.43;;;18.60;63.00;;;;;;5023396;28;20544;-63
2022/04/29 00:36:41;;;;;;;10.68;5.00;;;18.60;63.00;;;;;;5017292;28;20018;-63
2022/04/29 00:39:07;;;;;;;10.98;5.00;;;18.60;63.00;;;;;;5018554;28;20029;-63
2022/04/29 00:41:33;;;;;;;9.38;5.32;;;18.60;63.00;;;;;;5015294;28;20029;-63
2022/04/29 00:44:09;;;;;;;9.90;5.10;;;18.60;63.00;;;;;;5017460;28;20037;-63
2022/04/29 00:46:42;;;;;;;9.60;5.05;;;18.60;63.00;;;;;;5015967;28;20034;-63
2022/04/29 00:49:12;;;;;;;10.93;5.00;;;18.60;63.00;;;;;;5014207;28;20044;-63
2022/04/29 00:51:38;;;;;;;9.77;4.90;;;18.60;63.00;;;;;;5014491;28;20084;-63
2022/04/29 00:54:06;;;;;;;12.27;5.40;;;18.60;63.00;;;;;;5011947;28;20026;-63
2022/04/29 00:56:33;;;;;;;10.80;5.40;;;18.60;63.00;;;;;;5017408;28;20013;-63
2022/04/29 00:59:12;;;;;;;10.55;4.90;;;18.60;63.10;;;;;;5019643;28;20513;-63
2022/04/29 01:01:38;;;;;;;11.05;5.00;;;18.60;63.00;;;;;;5021001;28;20034;-63
2022/04/29 01:04:04;;;;;;;9.77;5.00;;;18.50;62.90;;;;;;5024707;28;20025;-63
2022/04/29 01:06:30;;;;;;;11.52;5.20;;;18.50;62.90;;;;;;5018037;28;20030;-63
2022/04/29 01:08:56;;;;;;;8.80;4.70;;;18.50;62.90;;;;;;5013638;28;20044;-63
2022/04/29 01:11:23;;;;;;;9.98;5.22;;;18.50;62.90;;;;;;5015948;28;20116;-63
2022/04/29 01:13:50;;;;;;;9.10;4.95;;;18.50;62.90;;;;;;5013537;28;20025;-63
2022/04/29 01:16:19;;;;;;;11.88;4.93;;;18.50;63.00;;;;;;5017872;28;20030;-63
2022/04/29 01:18:50;;;;;;;9.80;4.85;;;18.50;62.90;;;;;;5020672;28;20103;-63
2022/04/29 01:21:15;;;;;;;10.68;5.07;;;18.50;62.90;;;;;;5038114;28;20030;-63
2022/04/29 01:23:43;;;;;;;9.10;5.00;;;18.50;62.90;;;;;;5013314;28;20168;-63
2022/04/29 01:26:10;;;;;;;9.40;4.78;;;18.50;62.90;;;;;;5018787;28;20034;-63
2022/04/29 01:28:35;;;;;;;10.57;4.95;;;18.50;62.90;;;;;;5015138;28;20041;-63
2022/04/29 01:31:03;;;;;;;9.35;4.68;;;18.50;62.90;;;;;;5017982;28;20029;-63
2022/04/29 01:33:28;;;;;;;8.80;5.03;;;18.50;62.90;;;;;;5014262;28;20025;-63
2022/04/29 01:35:55;;;;;;;10.30;4.57;;;18.50;62.90;;;;;;5016850;28;20056;-63
2022/04/29 01:38:21;;;;;;;9.02;4.82;;;18.50;63.00;;;;;;5011110;28;20076;-63
2022/04/29 01:40:47;;;;;;;9.30;4.82;;;18.40;62.90;;;;;;5016196;28;20131;-63
2022/04/29 01:43:12;;;;;;;10.93;4.63;;;18.40;62.90;;;;;;5017061;28;20493;-63
2022/04/29 01:45:38;;;;;;;9.27;4.60;;;18.40;62.90;;;;;;5013465;28;20065;-63
2022/04/29 01:48:04;;;;;;;8.27;4.55;;;18.40;62.90;;;;;;5019758;28;20181;-63
2022/04/29 01:50:30;;;;;;;10.93;4.68;;;18.40;62.90;;;;;;5010630;28;20038;-63
2022/04/29 01:52:55;;;;;;;8.70;4.72;;;18.40;63.00;;;;;;5015006;28;20022;-63
2022/04/29 01:55:21;;;;;;;9.07;4.75;;;18.40;62.90;;;;;;5021663;28;20071;-63
2022/04/29 01:57:49;;;;;;;8.65;4.65;;;18.40;62.90;;;;;;5013347;28;20018;-63
2022/04/29 02:00:15;;;;;;;9.15;4.65;;;18.40;62.90;;;;;;5014506;28;20174;-63
2022/04/29 02:02:41;;;;;;;8.70;4.68;;;18.40;62.90;;;;;;5018188;28;20390;-63
2022/04/29 02:05:06;;;;;;;9.80;4.53;;;18.40;62.90;;;;;;5010442;28;20032;-63
2022/04/29 02:07:32;;;;;;;8.60;4.57;;;18.40;62.90;;;;;;5016679;28;20430;-63
2022/04/29 02:09:58;;;;;;;9.07;4.63;;;18.40;62.90;;;;;;5016836;28;20345;-63
2022/04/29 02:12:23;;;;;;;9.75;4.55;;;18.40;62.90;;;;;;5015690;28;20021;-63
2022/04/29 02:14:49;;;;;;;9.95;4.93;;;18.40;62.80;;;;;;5012137;28;20115;-63
2022/04/29 02:17:14;;;;;;;7.32;4.25;;;18.30;62.70;;;;;;5010446;28;20095;-63
2022/04/29 02:19:40;;;;;;;8.45;4.60;;;18.40;62.70;;;;;;5015631;28;20022;-63
2022/04/29 02:22:08;;;;;;;8.75;4.50;;;18.30;62.70;;;;;;5020341;28;20116;-63
2022/04/29 02:24:33;;;;;;;9.80;4.45;;;18.30;62.70;;;;;;5022256;28;20032;-63
2022/04/29 02:27:00;;;;;;;8.20;4.35;;;18.30;62.70;;;;;;5014710;28;20029;-63
2022/04/29 02:29:27;;;;;;;10.50;4.70;;;18.30;62.70;;;;;;5018414;28;20570;-63
2022/04/29 02:31:53;;;;;;;11.88;5.40;;;18.30;62.90;;;;;;5020652;28;20064;-63
2022/04/29 02:34:19;;;;;;;10.75;5.28;;;18.40;64.50;;;;;;5017853;28;20115;-63
2022/04/29 02:36:45;;;;;;;12.52;5.88;;;18.40;64.10;;;;;;5018122;28;20038;-63
2022/04/29 02:39:10;;;;;;;9.18;4.85;;;18.40;65.20;;;;;;5021915;28;20537;-63
2022/04/29 02:41:37;;;;;;;9.15;4.63;;;18.40;64.70;;;;;;5026019;28;20399;-64
2022/04/29 02:44:03;;;;;;;9.55;4.57;;;18.40;64.20;;;;;;5026077;28;20031;-64
2022/04/29 02:46:28;;;;;;;13.15;5.10;;;18.40;64.10;;;;;;5024180;28;20048;-63
2022/04/29 02:48:54;;;;;;;15.68;5.68;;;18.40;64.50;;;;;;5019247;28;20057;-63
2022/04/29 02:51:20;;;;;;;16.05;5.50;;;18.40;65.50;;;;;;5026663;28;20542;-63
2022/04/29 02:53:46;;;;;;;12.90;5.22;;;18.40;66.00;;;;;;5013922;28;20200;-64
2022/04/29 02:56:11;;;;;;;13.93;5.70;;;18.40;66.50;;;;;;5015264;28;20172;-63
2022/04/29 02:58:37;;;;;;;17.02;4.93;;;18.40;65.80;;;;;;5018219;28;20037;-63
2022/04/29 03:01:03;;;;;;;10.80;4.20;;;18.40;66.20;;;;;;5023036;28;20032;-64
2022/04/29 03:03:29;;;;;;;15.23;5.40;;;18.40;65.80;;;;;;5020643;28;20034;-64
2022/04/29 03:05:54;;;;;;;11.48;5.18;;;18.40;65.50;;;;;;5014770;28;20033;-64
2022/04/29 03:08:20;;;;;;;12.93;5.10;;;18.40;65.40;;;;;;5001609;28;20518;-63
2022/04/29 03:10:47;;;;;;;12.38;5.03;;;18.30;65.30;;;;;;5016595;28;20067;-63
2022/04/29 03:13:13;;;;;;;10.88;4.80;;;18.40;65.40;;;;;;5022106;28;20060;-63
2022/04/29 03:15:39;;;;;;;12.50;5.15;;;18.40;65.50;;;;;;5022516;28;20041;-63
2022/04/29 03:18:22;;;;;;;12.40;5.28;;;18.30;65.50;;;;;;5018128;28;20025;-63
2022/04/29 03:20:53;;;;;;;16.10;5.00;;;18.30;65.30;;;;;;5015995;28;20077;-64
2022/04/29 03:23:18;;;;;;;12.50;4.70;;;18.30;65.40;;;;;;5018633;28;20034;-64
2022/04/29 03:25:44;;;;;;;12.93;5.00;;;18.30;65.20;;;;;;5017607;28;20140;-64
2022/04/29 03:28:10;;;;;;;12.77;4.90;;;18.30;65.20;;;;;;5025742;28;20038;-63
2022/04/29 03:30:35;;;;;;;13.52;4.78;;;18.30;65.30;;;;;;5019621;28;20025;-64
2022/04/29 03:33:02;;;;;;;10.45;5.00;;;18.30;65.20;;;;;;5016240;28;20030;-64
2022/04/29 03:35:28;;;;;;;13.10;5.10;;;18.30;65.50;;;;;;5016127;28;20029;-64
2022/04/29 03:37:54;;;;;;;15.80;5.38;;;18.30;65.20;;;;;;5024500;28;20064;-64
2022/04/29 03:40:21;;;;;;;12.23;5.03;;;18.30;65.20;;;;;;5028865;28;20026;-63
2022/04/29 03:42:51;;;;;;;11.50;5.50;;;18.30;65.40;;;;;;5028216;28;20091;-64
2022/04/29 03:45:17;;;;;;;11.68;4.88;;;18.30;65.20;;;;;;5023843;28;20495;-63
2022/04/29 03:47:43;;;;;;;13.15;4.90;;;18.20;65.10;;;;;;5018949;28;20599;-64
2022/04/29 03:50:09;;;;;;;12.95;4.60;;;18.20;65.10;;;;;;5019133;28;20066;-64
2022/04/29 03:52:47;;;;;;;14.38;4.93;;;18.20;65.20;;;;;;5020833;28;20040;-64
2022/04/29 03:55:14;;;;;;;10.68;4.90;;;18.20;65.20;;;;;;5024366;28;20065;-64
2022/04/29 03:57:39;;;;;;;10.95;4.32;;;18.20;65.50;;;;;;5020640;28;20038;-64
2022/04/29 04:00:06;;;;;;;12.35;4.72;;;18.20;65.20;;;;;;5015817;28;20029;-63
2022/04/29 04:02:32;;;;;;;16.10;5.15;;;18.20;65.40;;;;;;5023503;28;20033;-64
2022/04/29 04:04:57;;;;;;;10.40;4.50;;;18.20;65.40;;;;;;5026762;28;20501;-63
2022/04/29 04:07:23;;;;;;;13.73;5.28;;;18.20;65.30;;;;;;5028194;28;20517;-64
2022/04/29 04:09:49;;;;;;;13.75;4.80;;;18.10;65.40;;;;;;5029763;28;20506;-63
2022/04/29 04:12:15;;;;;;;10.15;4.60;;;18.20;65.50;;;;;;5028190;28;20035;-63
2022/04/29 04:14:40;;;;;;;8.85;5.03;;;18.20;65.50;;;;;;5023558;28;20382;-64
2022/04/29 04:17:07;;;;;;;10.75;4.85;;;18.20;65.40;;;;;;5024722;28;20033;-64
2022/04/29 04:19:34;;;;;;;11.05;4.82;;;18.10;65.40;;;;;;5024789;28;20041;-63
2022/04/29 04:22:00;;;;;;;12.25;4.80;;;18.10;65.50;;;;;;5031052;28;20037;-64
2022/04/29 04:24:25;;;;;;;12.57;4.97;;;18.10;65.40;;;;;;5024261;28;20037;-63
2022/04/29 04:26:51;;;;;;;10.45;4.93;;;18.10;65.50;;;;;;5021642;28;20030;-63
2022/04/29 04:29:17;;;;;;;10.77;4.95;;;18.10;65.40;;;;;;5018699;28;20042;-63
2022/04/29 04:31:42;;;;;;;9.68;4.82;;;18.10;65.40;;;;;;5022430;28;20030;-64
2022/04/29 04:36:55;;;;;;;11.80;4.60;;;18.10;65.50;;;;;;5026037;28;20517;-63
2022/04/29 04:39:21;;;;;;;12.25;4.80;;;18.10;65.50;;;;;;5021023;28;20025;-64
2022/04/29 04:41:48;;;;;;;11.18;4.65;;;18.10;65.50;;;;;;5018730;28;20120;-64
2022/04/29 04:44:13;;;;;;;10.95;4.93;;;18.10;65.50;;;;;;5021835;28;20576;-63
2022/04/29 04:46:39;;;;;;;9.65;4.47;;;18.10;65.40;;;;;;5031822;28;20117;-64
2022/04/29 04:49:05;;;;;;;10.27;4.72;;;18.10;65.50;;;;;;5027547;28;20430;-64
2022/04/29 04:51:31;;;;;;;12.50;4.95;;;18.00;65.50;;;;;;5024058;28;20033;-64
2022/04/29 04:53:56;;;;;;;13.05;4.85;;;18.00;65.40;;;;;;5016406;28;20076;-64
2022/04/29 04:56:22;;;;;;;10.75;4.68;;;18.10;65.50;;;;;;5014799;28;20026;-64
2022/04/29 04:58:48;;;;;;;11.93;4.68;;;18.00;65.40;;;;;;5022041;28;20592;-64
2022/04/29 05:01:13;;;;;;;11.38;5.03;;;18.00;65.50;;;;;;5022056;28;20053;-64
2022/04/29 05:03:40;;;;;;;10.57;5.35;;;18.00;65.40;;;;;;5025472;28;20069;-64
2022/04/29 05:06:05;;;;;;;11.15;5.05;;;18.00;65.40;;;;;;5022537;28;20026;-64
2022/04/29 05:08:31;;;;;;;9.05;4.53;;;18.00;65.40;;;;;;5021802;28;20064;-64
2022/04/29 05:10:56;;;;;;;10.13;4.68;;;18.00;66.60;;;;;;5020182;28;20026;-63
2022/04/29 05:13:22;;;;;;;11.65;4.45;;;18.00;65.40;;;;;;5023285;28;20036;-64
2022/04/29 05:15:48;;;;;;;9.95;4.65;;;18.00;65.50;;;;;;5025731;28;20045;-64
2022/04/29 05:18:15;;;;;;;11.13;4.50;;;18.00;65.50;;;;;;5023926;28;20029;-64
2022/04/29 05:20:40;;;;;;;10.00;4.72;;;18.00;65.40;;;;;;5013988;28;20578;-64
2022/04/29 05:23:06;;;;;;;11.77;4.78;;;18.00;65.50;;;;;;5014746;28;20109;-63
2022/04/29 05:25:33;;;;;;;10.82;4.80;;;17.90;65.50;;;;;;5021075;28;20095;-63
2022/04/29 05:27:59;;;;;;;11.38;4.57;;;17.90;65.40;;;;;;5012750;28;20379;-64
2022/04/29 05:30:26;;;;;;;12.65;4.75;;;17.90;65.30;;;;;;5021372;28;20048;-63
2022/04/29 05:32:53;;;;;;;12.00;4.60;;;17.90;65.50;;;;;;5017334;28;20486;-63
2022/04/29 05:35:18;;;;;;;11.60;4.90;;;18.00;65.50;;;;;;5019856;28;20025;-64
2022/04/29 05:37:44;;;;;;;10.77;4.35;;;17.90;65.50;;;;;;5025074;28;20088;-64
2022/04/29 05:42:54;;;;;;;9.63;4.55;;;17.90;65.50;;;;;;5008077;28;20123;-63
2022/04/29 05:45:20;;;;;;;11.85;4.43;;;17.90;65.30;;;;;;5019651;28;20060;-64
2022/04/29 05:47:46;;;;;;;11.75;4.18;;;17.90;65.40;;;;;;5019692;28;20052;-64
2022/04/29 05:50:11;;;;;;;13.10;4.93;;;17.90;65.50;;;;;;5014253;28;20033;-63
2022/04/29 05:52:37;;;;;;;9.70;4.80;;;17.90;65.40;;;;;;5021182;28;20391;-63
2022/04/29 05:55:03;;;;;;;10.90;4.38;;;17.80;65.40;;;;;;5021044;28;20032;-63
2022/04/29 05:57:28;;;;;;;10.00;4.53;;;17.90;65.40;;;;;;5021251;28;20083;-64
2022/04/29 05:59:54;;;;;;;10.60;4.63;;;17.90;65.50;;;;;;5016714;28;20607;-64
2022/04/29 06:02:23;;;;;;;10.25;4.43;;;17.90;65.40;;;;;;5023868;28;20033;-63
2022/04/29 06:04:49;;;;;;;10.10;4.55;;;17.90;65.30;;;;;;5027849;28;20514;-64
2022/04/29 06:07:14;;;;;;;10.68;4.60;;;17.80;65.30;;;;;;5027375;28;20042;-64
2022/04/29 06:09:40;;;;;;;9.27;4.65;;;17.80;65.40;;;;;;5021664;28;20041;-63
2022/04/29 06:12:06;;;;;;;9.02;4.47;;;17.80;65.30;;;;;;5024616;28;20021;-63
2022/04/29 06:14:34;;;;;;;9.25;4.45;;;17.80;65.30;;;;;;5015797;28;20064;-64
2022/04/29 06:16:59;;;;;;;8.20;4.43;;;17.80;65.30;;;;;;5027517;28;20048;-63
2022/04/29 06:19:25;;;;;;;10.38;4.55;;;17.80;65.40;;;;;;5020485;28;20456;-64
2022/04/29 06:21:51;;;;;;;10.13;4.68;;;17.80;65.20;;;;;;5021220;28;20022;-63
2022/04/29 06:24:16;;;;;;;10.48;4.70;;;17.80;65.20;;;;;;5021590;28;20057;-63
2022/04/29 06:26:42;;;;;;;9.85;4.90;;;17.80;65.10;;;;;;5011671;28;20045;-64
2022/04/29 06:29:08;;;;;;;9.90;4.30;;;17.80;65.20;;;;;;5014718;28;20065;-64
2022/04/29 06:31:33;;;;;;;11.20;4.88;;;17.80;65.20;;;;;;5022104;28;20040;-63
2022/04/29 06:33:59;;;;;;;9.15;4.10;;;17.80;65.30;;;;;;5014762;28;20033;-64
2022/04/29 06:36:25;;;;;;;10.73;4.88;;;17.80;65.30;;;;;;5019837;28;20029;-64
2022/04/29 06:38:51;;;;;;;8.50;4.55;;;17.80;65.30;;;;;;5023107;28;20083;-63
2022/04/29 06:41:17;;;;;;;10.15;4.85;;;17.80;65.30;;;;;;5013616;28;20030;-64
2022/04/29 06:43:42;;;;;;;9.35;4.82;;;17.80;65.30;;;;;;5022993;28;20082;-63
2022/04/29 06:46:09;;;;;;;9.23;4.53;;;17.80;65.20;;;;;;5026326;28;20514;-64
2022/04/29 06:48:34;;;;;;;9.25;4.60;;;17.70;65.20;;;;;;5021128;28;20522;-64
2022/04/29 06:51:00;;;;;;;10.27;4.78;;;17.70;65.20;;;;;;5013016;28;20028;-63
2022/04/29 06:53:25;;;;;;;9.18;4.55;;;17.70;65.20;;;;;;5016373;28;20517;-64
2022/04/29 06:55:51;;;;;;;14.05;5.15;;;17.70;65.10;;;;;;5021545;28;20418;-63
2022/04/29 06:58:17;;;;;;;10.70;4.68;;;17.70;65.20;;;;;;5020614;28;20022;-64
2022/04/29 07:00:43;;;;;;;9.45;4.35;;;17.70;65.10;;;;;;5022420;28;20411;-64
2022/04/29 07:03:09;;;;;;;8.48;4.35;;;17.70;65.20;;;;;;5015335;28;20107;-64
2022/04/29 07:05:39;;;;;;;11.10;4.90;;;17.70;65.10;;;;;;5019135;28;20049;-63
2022/04/29 07:08:06;;;;;;;8.75;4.40;;;17.70;65.10;;;;;;5019014;28;20060;-64
2022/04/29 07:10:31;;;;;;;9.38;4.35;;;17.70;65.10;;;;;;5025733;28;20681;-64
2022/04/29 07:12:57;;;;;;;9.73;4.47;;;17.70;65.20;;;;;;5020898;28;20030;-63
2022/04/29 07:15:23;;;;;;;9.07;4.45;;;17.70;65.20;;;;;;5024733;28;20035;-64
2022/04/29 07:17:49;;;;;;;10.68;4.75;;;17.70;65.10;;;;;;5025030;28;20017;-64
2022/04/29 07:20:15;;;;;;;8.13;4.53;;;17.70;65.10;;;;;;5020291;28;20108;-63
2022/04/29 07:22:41;;;;;;;10.63;4.72;;;17.70;65.00;;;;;;5023083;28;20112;-64
2022/04/29 07:25:07;;;;;;;10.65;4.55;;;17.70;65.10;;;;;;5029728;28;20504;-64
2022/04/29 07:27:33;;;;;;;8.40;4.40;;;17.70;65.00;;;;;;5024790;28;20022;-63
2022/04/29 07:30:03;;;;;;;7.57;4.28;;;17.70;65.10;;;;;;5024030;28;20051;-64
2022/04/29 07:32:29;;;;;;;7.28;4.05;;;17.70;65.10;;;;;;5016112;28;20065;-64
2022/04/29 07:43:07;;;;;;;8.85;4.40;;;17.70;65.20;;;;;;5033938;28;20221;-63
2022/04/29 07:45:35;;;;;;;9.63;4.30;;;17.60;65.10;;;;;;5022437;28;20114;-63
2022/04/29 07:48:00;;;;;;;8.15;4.25;;;17.70;65.20;;;;;;5021655;28;20045;-64
2022/04/29 07:50:29;;;;;;;9.32;4.35;;;17.70;65.20;;;;;;5017356;28;20128;-64
2022/04/29 07:52:56;;;;;;;10.13;4.40;;;17.70;65.20;;;;;;5014934;28;20030;-64
2022/04/29 07:55:22;;;;;;;8.65;4.68;;;17.70;65.20;;;;;;5022257;28;20064;-63
2022/04/29 07:57:48;;;;;;;8.45;4.57;;;17.70;65.20;;;;;;5024795;28;20446;-64
2022/04/29 08:00:14;;;;;;;10.52;4.80;;;17.60;65.10;;;;;;5024455;28;20025;-63
2022/04/29 08:02:39;;;;;;;8.68;4.20;;;17.70;65.10;;;;;;5019771;28;20018;-63
2022/04/29 08:05:06;;;;;;;8.70;4.30;;;17.60;65.10;;;;;;5023047;28;20414;-63
2022/04/29 08:07:33;;;;;;;8.85;4.50;;;17.70;65.10;;;;;;5020482;28;20034;-64
2022/04/29 08:09:59;;;;;;;10.40;4.50;;;17.60;65.00;;;;;;5031670;28;20107;-64
2022/04/29 08:12:26;;;;;;;8.15;4.40;;;17.60;65.00;;;;;;5026916;28;20497;-63
2022/04/29 08:14:53;;;;;;;8.55;4.50;;;17.60;65.00;;;;;;5024170;28;20108;-63
2022/04/29 08:17:19;;;;;;;9.80;4.50;;;17.60;65.00;;;;;;5023542;28;20029;-64
2022/04/29 08:19:45;;;;;;;9.00;4.47;;;17.60;65.00;;;;;;5029860;28;20046;-65
2022/04/29 08:22:11;;;;;;;9.20;4.60;;;17.60;65.10;;;;;;5026753;28;20021;-64
2022/04/29 08:24:36;;;;;;;9.65;4.63;;;17.60;65.10;;;;;;5020945;28;20064;-64
2022/04/29 08:27:03;;;;;;;8.55;4.40;;;17.60;65.00;;;;;;5016282;28;20022;-63
2022/04/29 08:29:28;;;;;;;8.15;4.60;;;17.60;65.10;;;;;;5020587;28;20083;-64
2022/04/29 08:31:54;;;;;;;7.55;4.25;;;17.60;65.10;;;;;;5015420;28;20542;-64
2022/04/29 08:34:20;;;;;;;9.95;4.45;;;17.70;65.00;;;;;;5027158;28;20030;-63
2022/04/29 08:36:45;;;;;;;8.88;4.50;;;17.70;65.10;;;;;;5020848;28;20387;-64
2022/04/29 08:39:11;;;;;;;9.05;4.20;;;17.60;65.00;;;;;;5015424;28;20065;-64
2022/04/29 08:41:38;;;;;;;7.70;4.30;;;17.70;65.10;;;;;;5016164;28;20021;-63
2022/04/29 08:44:05;;;;;;;8.07;4.60;;;17.60;65.10;;;;;;5026267;28;20053;-64
2022/04/29 08:46:30;;;;;;;7.68;4.10;;;17.70;65.10;;;;;;5010630;28;20041;-64
2022/04/29 08:48:56;;;;;;;8.10;4.25;;;17.60;65.10;;;;;;5026609;28;20518;-63
2022/04/29 08:51:22;;;;;;;8.13;4.30;;;17.60;65.00;;;;;;5020939;28;20074;-64
2022/04/29 08:53:48;;;;;;;7.45;4.40;;;17.60;65.00;;;;;;5021328;28;20078;-64
2022/04/29 08:58:58;;;;;;;7.70;4.07;;;17.60;66.10;;;;;;5023998;28;20033;-63
2022/04/29 09:01:23;;;;;;;7.78;4.50;;;17.60;65.00;;;;;;5029324;28;20025;-63
2022/04/29 09:03:49;;;;;;;9.20;4.30;;;17.60;65.00;;;;;;5017701;28;20042;-64
2022/04/29 09:06:22;;;;;;;7.15;4.20;;;17.70;65.10;;;;;;5018742;28;20034;-63
2022/04/29 09:08:48;;;;;;;7.80;4.10;;;17.70;65.00;;;;;;5015085;28;20574;-64
2022/04/29 09:11:26;;;;;;;8.05;3.95;;;17.70;65.00;;;;;;5016167;28;20030;-63
2022/04/29 09:13:52;;;;;;;7.03;4.03;;;17.70;65.00;;;;;;5020102;28;20037;-64
2022/04/29 09:16:18;;;;;;;9.00;4.10;;;17.70;65.00;;;;;;5014671;28;20105;-64
2022/04/29 09:18:50;;;;;;;8.02;3.95;;;17.70;65.00;;;;;;5027854;28;20159;-64
2022/04/29 09:21:19;;;;;;;8.45;4.38;;;17.70;65.10;;;;;;5027112;28;20059;-64
2022/04/29 09:23:55;;;;;;;9.18;3.90;;;17.70;65.00;;;;;;5020027;28;20118;-64
2022/04/29 09:26:25;;;;;;;8.57;4.18;;;17.70;65.00;;;;;;5020677;28;20026;-63
2022/04/29 09:28:55;;;;;;;7.53;4.20;;;17.70;65.00;;;;;;5021043;28;20045;-63
2022/04/29 09:31:21;;;;;;;8.15;4.05;;;17.70;65.10;;;;;;5025144;28;20319;-64
2022/04/29 09:33:56;;;;;;;8.52;4.30;;;17.70;65.00;;;;;;5023941;28;20128;-63
2022/04/29 09:36:24;;;;;;;7.30;3.92;;;17.70;65.00;;;;;;5022469;28;20030;-64
2022/04/29 09:41:59;;;;;;;6.97;3.90;;;17.70;65.00;;;;;;5021972;28;20114;-64
2022/04/29 09:44:31;;;;;;;6.38;3.88;;;17.70;65.00;;;;;;5013208;28;20022;-64
2022/04/29 09:47:17;;;;;;;6.95;4.07;;;17.70;64.90;;;;;;5013327;28;20040;-64
2022/04/29 09:49:52;;;;;;;7.18;3.80;;;17.70;64.90;;;;;;5022318;28;20136;-64
2022/04/29 09:52:18;;;;;;;6.85;3.90;;;17.70;64.90;;;;;;5025990;28;20036;-64
2022/04/29 09:54:44;;;;;;;7.07;3.80;;;17.70;64.90;;;;;;5021308;28;20030;-64
2022/04/29 09:57:23;;;;;;;6.57;3.88;;;17.80;65.00;;;;;;5020290;28;20039;-64
2022/04/29 09:59:58;;;;;;;7.07;3.70;;;17.70;64.90;;;;;;5017478;28;20454;-64
2022/04/29 10:02:27;;;;;;;7.07;3.80;;;17.70;64.90;;;;;;5017245;28;20029;-64
2022/04/29 10:04:53;;;;;;;7.80;3.88;;;17.80;65.00;;;;;;5012879;28;20506;-63
2022/04/29 10:07:21;;;;;;;7.68;3.65;;;17.80;64.90;;;;;;5033555;28;20029;-64
2022/04/29 10:09:51;;;;;;;7.35;3.85;;;17.80;64.90;;;;;;5030101;28;20045;-64
2022/04/29 10:12:18;;;;;;;6.88;3.90;;;17.80;64.90;;;;;;5022066;28;20025;-63
2022/04/29 10:14:45;;;;;;;7.18;4.00;;;17.80;64.90;;;;;;5017144;28;20120;-64
2022/04/29 10:22:41;;;;;;;7.65;3.60;;;17.80;64.90;;;;;;5023618;28;19954;-64
2022/04/29 10:25:08;;;;;;;5.50;3.47;;;17.80;64.80;;;;;;5013696;28;20402;-64
2022/04/29 10:27:34;;;;;;;7.13;3.63;;;17.80;64.90;;;;;;5019986;28;20453;-63
2022/04/29 10:30:00;;;;;;;7.57;3.78;;;17.80;64.90;;;;;;5014038;28;20033;-64
2022/04/29 10:32:25;;;;;;;7.35;4.00;;;17.80;64.80;;;;;;5023036;28;20029;-63
2022/04/29 10:34:55;;;;;;;8.15;3.75;;;17.80;64.90;;;;;;5015239;28;20507;-64
2022/04/29 10:37:30;;;;;;;6.82;3.80;;;17.80;64.80;;;;;;5014323;28;20033;-64
2022/04/29 10:40:11;;;;;;;7.63;3.72;;;17.90;64.90;;;;;;5026352;28;20034;-64
2022/04/29 10:43:06;;;;;;;6.40;3.30;;;17.90;64.90;;;;;;5025965;28;20084;-64
2022/04/29 10:45:31;;;;;;;7.67;3.70;;;17.90;64.90;;;;;;5026600;28;20030;-64
2022/04/29 10:47:57;;;;;;;6.68;3.72;;;17.90;64.90;;;;;;5017908;28;20489;-64
2022/04/29 10:50:29;;;;;;;7.40;3.80;;;17.90;64.80;;;;;;5015687;28;20109;-64
2022/04/29 10:53:04;;;;;;;8.90;4.05;;;17.90;64.90;;;;;;5024164;28;20033;-64
2022/04/29 10:55:31;;;;;;;7.03;3.88;;;17.90;64.90;;;;;;5025718;28;20053;-64
2022/04/29 10:58:00;;;;;;;6.78;3.58;;;17.90;64.70;;;;;;5029030;28;20437;-64
2022/04/29 11:00:27;;;;;;;7.65;3.72;;;17.90;64.70;;;;;;5027361;28;20031;-64
2022/04/29 11:02:53;;;;;;;6.88;3.70;;;17.90;64.80;;;;;;5019536;28;20033;-63
2022/04/29 11:05:35;;;;;;;6.80;3.75;;;18.00;64.80;;;;;;5024924;28;20034;-65
2022/04/29 11:08:07;;;;;;;6.60;3.70;;;17.90;64.80;;;;;;5017757;28;20109;-64
2022/04/29 11:10:56;;;;;;;6.03;3.50;;;17.90;64.80;;;;;;5030689;28;20049;-64
2022/04/29 11:13:22;;;;;;;6.22;3.60;;;18.00;64.80;;;;;;5023561;28;20030;-64
2022/04/29 11:15:48;;;;;;;7.63;4.03;;;17.90;64.70;;;;;;5024461;28;20034;-64
2022/04/29 11:18:15;;;;;;;6.60;3.63;;;18.00;64.80;;;;;;5020259;28;20487;-64
2022/04/29 11:20:43;;;;;;;6.60;3.88;;;18.00;64.90;;;;;;5018912;28;20042;-64
2022/04/29 11:26:00;;;;;;;6.85;3.97;;;18.00;64.80;;;;;;5021234;28;20040;-64
2022/04/29 11:28:27;;;;;;;8.70;4.00;;;18.00;64.80;;;;;;5017976;28;20037;-64
2022/04/29 11:31:07;;;;;;;7.05;3.70;;;18.00;64.70;;;;;;5028580;28;20049;-64
2022/04/29 11:33:33;;;;;;;7.25;3.90;;;18.00;64.70;;;;;;5023789;28;20510;-63
2022/04/29 11:36:08;;;;;;;6.55;3.78;;;18.00;64.80;;;;;;5017772;28;20111;-64
2022/04/29 11:38:42;;;;;;;5.80;3.50;;;18.00;64.70;;;;;;5016766;28;20029;-64
2022/04/29 11:41:07;;;;;;;7.25;3.80;;;18.10;64.80;;;;;;5025518;28;20030;-64
2022/04/29 11:43:33;;;;;;;6.75;3.80;;;18.00;64.70;;;;;;5052454;28;20427;-64
2022/04/29 11:46:01;;;;;;;7.03;3.80;;;18.00;64.70;;;;;;5022427;28;20524;-64
2022/04/29 11:48:26;;;;;;;6.97;3.92;;;18.10;64.80;;;;;;5021433;28;20517;-64
2022/04/29 11:50:55;;;;;;;6.45;3.58;;;18.00;64.70;;;;;;5027780;28;20040;-63
2022/04/29 11:53:20;;;;;;;6.45;3.70;;;18.10;64.70;;;;;;5026804;28;20834;-64
2022/04/29 11:55:50;;;;;;;5.60;3.42;;;18.10;64.70;;;;;;5014250;28;20033;-64
2022/04/29 11:58:16;;;;;;;6.75;3.90;;;18.10;64.70;;;;;;5023493;28;20037;-65
2022/04/29 12:00:49;;;;;;;8.40;3.85;;;18.10;64.70;;;;;;5026016;28;20033;-65
2022/04/29 12:03:23;;;;;;;9.25;3.90;;;18.10;65.70;;;;;;5026673;28;20033;-64
2022/04/29 12:05:49;;;;;;;7.85;4.00;;;18.10;64.70;;;;;;5020536;28;20036;-64
2022/04/29 12:08:15;;;;;;;7.15;4.00;;;18.10;64.70;;;;;;5016448;28;20033;-64
2022/04/29 12:10:47;;;;;;;7.07;3.88;;;18.10;64.60;;;;;;5020745;28;20034;-64
2022/04/29 12:13:13;;;;;;;6.90;3.75;;;18.10;64.60;;;;;;5024115;28;20554;-65
2022/04/29 12:15:42;;;;;;;6.43;3.90;;;18.10;64.60;;;;;;5021732;28;20145;-64
2022/04/29 12:18:12;;;;;;;6.90;3.92;;;18.10;64.60;;;;;;5018898;28;20037;-64
2022/04/29 12:20:38;;;;;;;6.75;3.78;;;18.10;64.60;;;;;;5015427;28;20018;-65
2022/04/29 12:23:15;;;;;;;6.80;3.92;;;18.20;64.60;;;;;;5021706;28;20030;-64
2022/04/29 12:25:45;;;;;;;6.70;4.00;;;18.20;64.70;;;;;;5014530;28;20554;-64
2022/04/29 12:28:15;;;;;;;7.32;3.78;;;18.20;64.60;;;;;;5022309;28;20040;-64
2022/04/29 12:36:57;;;;;;;6.43;3.63;;;18.20;64.50;;;;;;5022402;28;20036;-63
2022/04/29 12:39:40;;;;;;;7.97;3.88;;;18.20;64.50;;;;;;5025507;28;20383;-64
2022/04/29 12:42:08;;;;;;;6.40;3.85;;;18.20;64.40;;;;;;5021520;28;20032;-64
2022/04/29 12:45:04;;;;;;;6.93;4.20;;;18.20;64.40;;;;;;5019840;28;20021;-64
2022/04/29 12:47:46;;;;;;;6.13;3.58;;;18.20;64.40;;;;;;4998791;28;20095;-64
2022/04/29 12:50:35;;;;;;;9.48;4.40;;;18.20;64.40;;;;;;5009504;28;20457;-64
2022/04/29 12:53:12;;;;;;;6.75;3.90;;;18.20;64.40;;;;;;4995464;28;20030;-64
2022/04/29 12:55:44;;;;;;;7.13;4.00;;;18.20;64.40;;;;;;5011904;28;20037;-64
2022/04/29 12:58:19;;;;;;;7.75;3.90;;;18.30;64.40;;;;;;5013578;28;20073;-65
2022/04/29 13:00:48;;;;;;;9.60;4.05;;;18.30;64.40;;;;;;5010419;28;20121;-65
2022/04/29 13:03:18;;;;;;;6.47;3.90;;;18.30;64.40;;;;;;5005975;28;20027;-64
2022/04/29 13:05:43;;;;;;;7.55;3.85;;;18.30;64.40;;;;;;5007356;28;20401;-64
2022/04/29 13:08:09;;;;;;;6.13;3.72;;;18.30;64.30;;;;;;5010662;28;20029;-64
2022/04/29 13:10:55;;;;;;;7.78;3.88;;;18.30;64.30;;;;;;5012170;28;20060;-64
2022/04/29 13:13:22;;;;;;;8.23;4.10;;;18.30;64.30;;;;;;5013422;28;20515;-64
2022/04/29 13:15:48;;;;;;;6.95;4.15;;;18.30;64.30;;;;;;5012033;28;20076;-65
2022/04/29 13:18:16;;;;;;;7.57;3.92;;;18.30;64.30;;;;;;5012310;28;20758;-64